Time;durP1;ratioP1;P1;durP2;ratioP2;P2;SDS_P1;SDS_P2;PMS_P1;PMS_P2;Temp;Humidity;BMP_temperature;BMP_pressure;BME280_temperature;BME280_humidity;BME280_pressure;Samples;Min_cycle;Max_cycle;Signal;HPM_P1;HPM_P2
2021/04/18 08:42:28;;;;;;;3.33;1.05;;;17.30;51.90;;;;;;5105477;27;20374;-35
2021/04/18 08:44:55;;;;;;;1.92;0.90;;;18.20;50.80;;;;;;5103889;28;20023;-39
2021/04/18 08:47:21;;;;;;;1.00;0.90;;;18.10;51.00;;;;;;5102721;28;20027;-38
2021/04/18 08:49:47;;;;;;;0.57;0.55;;;18.20;51.00;;;;;;5087055;28;20140;-39
2021/04/18 08:52:26;;;;;;;0.80;0.80;;;18.30;50.80;;;;;;5105936;28;20489;-39
2021/04/18 08:54:56;;;;;;;0.90;0.70;;;18.40;50.90;;;;;;5102176;28;20020;-35
2021/04/18 08:57:24;;;;;;;0.85;0.85;;;18.40;51.00;;;;;;5106837;28;20016;-40
2021/04/18 08:59:56;;;;;;;0.77;0.77;;;18.50;50.90;;;;;;5104792;28;20042;-38
2021/04/18 09:02:29;;;;;;;0.70;0.70;;;18.50;51.00;;;;;;5104463;28;20030;-35
2021/04/18 09:04:59;;;;;;;0.95;0.80;;;18.50;51.30;;;;;;5103472;28;20397;-37
2021/04/18 09:07:27;;;;;;;0.80;0.68;;;18.60;51.20;;;;;;5102840;28;20183;-38
2021/04/18 09:09:53;;;;;;;0.82;0.80;;;18.70;51.10;;;;;;5105478;28;20059;-33
2021/04/18 09:12:18;;;;;;;1.83;0.90;;;18.70;51.30;;;;;;5083418;28;20020;-36
2021/04/18 09:14:45;;;;;;;1.58;0.73;;;18.70;51.00;;;;;;5101182;28;20400;-37
2021/04/18 09:17:17;;;;;;;1.88;0.85;;;18.80;51.30;;;;;;5104583;28;20024;-34
2021/04/18 09:19:46;;;;;;;0.55;0.55;;;18.90;51.10;;;;;;5098560;28;20107;-35
2021/04/18 09:22:34;;;;;;;0.70;0.70;;;19.00;50.90;;;;;;5094256;28;20551;-35
2021/04/18 09:25:09;;;;;;;3.80;0.52;;;19.00;50.80;;;;;;5087190;28;20020;-34
2021/04/18 09:27:41;;;;;;;0.90;0.70;;;19.00;50.90;;;;;;5084121;28;20123;-39
2021/04/18 09:30:13;;;;;;;2.08;0.63;;;19.10;50.80;;;;;;5088061;28;20485;-38
2021/04/18 09:32:45;;;;;;;0.90;0.90;;;19.20;50.90;;;;;;5085516;28;20036;-37
2021/04/18 09:35:11;;;;;;;5.70;1.13;;;19.20;51.70;;;;;;5088452;28;20056;-41
2021/04/18 09:37:41;;;;;;;1.42;1.10;;;19.30;51.60;;;;;;5091614;28;20039;-38
2021/04/18 09:40:18;;;;;;;1.70;1.00;;;19.40;51.50;;;;;;5088234;28;20017;-35
2021/04/18 09:42:47;;;;;;;2.00;1.30;;;19.40;51.90;;;;;;5081081;28;20563;-41
2021/04/18 09:45:14;;;;;;;1.30;1.05;;;19.40;51.90;;;;;;5085144;28;20047;-41
2021/04/18 09:47:50;;;;;;;1.88;0.98;;;19.50;51.80;;;;;;5081887;28;20112;-40
2021/04/18 09:50:17;;;;;;;2.45;0.90;;;19.50;51.80;;;;;;5084880;28;20048;-37
2021/04/18 09:52:43;;;;;;;1.67;0.80;;;19.50;51.90;;;;;;5091209;28;20087;-37
2021/04/18 09:55:16;;;;;;;1.35;0.70;;;19.60;51.50;;;;;;5083326;28;20443;-37
2021/04/18 09:57:52;;;;;;;1.02;0.75;;;19.60;51.60;;;;;;5087064;28;20441;-36
2021/04/18 10:00:21;;;;;;;1.95;1.05;;;19.60;50.80;;;;;;5085251;28;20048;-37
2021/04/18 10:03:09;;;;;;;0.88;0.88;;;19.70;50.60;;;;;;5083799;28;20056;-39
2021/04/18 10:05:56;;;;;;;2.33;0.75;;;19.70;50.20;;;;;;5085480;28;20146;-39
2021/04/18 10:08:29;;;;;;;0.80;0.80;;;19.70;50.10;;;;;;5087177;28;20036;-38
2021/04/18 10:11:16;;;;;;;1.23;0.80;;;19.80;49.80;;;;;;5087930;28;20181;-38
2021/04/18 10:13:45;;;;;;;1.48;0.90;;;19.80;49.80;;;;;;4730847;28;10000097;-42
2021/04/18 10:16:12;;;;;;;1.95;1.25;;;19.90;49.80;;;;;;5083325;28;20040;-40
2021/04/18 10:18:42;;;;;;;2.00;1.00;;;19.90;49.70;;;;;;5081308;28;20048;-41
2021/04/18 10:21:15;;;;;;;1.30;1.08;;;19.90;49.60;;;;;;5085569;28;20412;-39
2021/04/18 10:23:40;;;;;;;1.95;1.38;;;20.00;49.60;;;;;;5081125;28;20060;-36
2021/04/18 10:26:06;;;;;;;2.15;1.25;;;20.00;49.70;;;;;;5049530;28;20055;-39
2021/04/18 10:28:31;;;;;;;2.97;1.25;;;20.00;49.70;;;;;;5081688;28;20446;-35
2021/04/18 10:30:57;;;;;;;1.98;1.60;;;20.10;49.50;;;;;;5084264;28;20020;-40
2021/04/18 10:33:22;;;;;;;1.35;1.23;;;20.20;49.60;;;;;;5081736;28;20023;-42
2021/04/18 10:35:48;;;;;;;1.10;1.00;;;20.20;49.30;;;;;;5081536;28;20027;-41
2021/04/18 10:38:14;;;;;;;2.15;1.23;;;20.20;49.10;;;;;;5085700;28;20110;-40
2021/04/18 10:40:39;;;;;;;4.07;1.13;;;20.20;49.30;;;;;;5083690;28;20056;-37
2021/04/18 10:43:07;;;;;;;3.25;1.35;;;20.20;49.50;;;;;;5085311;28;20028;-44
2021/04/18 10:45:32;;;;;;;1.38;1.17;;;20.20;49.70;;;;;;5080177;28;20028;-40
2021/04/18 10:47:58;;;;;;;1.92;1.10;;;20.10;50.00;;;;;;5083571;28;20024;-36
2021/04/18 10:50:23;;;;;;;1.42;1.15;;;20.20;50.20;;;;;;5085199;28;20020;-40
2021/04/18 10:52:49;;;;;;;2.50;1.10;;;20.20;50.30;;;;;;5084411;28;20031;-40
2021/04/18 10:55:15;;;;;;;2.45;1.17;;;20.20;51.10;;;;;;5083506;28;20032;-43
2021/04/18 10:57:40;;;;;;;1.95;1.00;;;20.20;50.90;;;;;;5087930;28;20359;-41
2021/04/18 11:00:06;;;;;;;1.70;1.25;;;20.20;51.00;;;;;;5085702;28;20028;-38
2021/04/18 11:02:32;;;;;;;3.08;1.00;;;20.30;51.50;;;;;;5085619;28;20028;-36
2021/04/18 11:04:58;;;;;;;1.20;1.10;;;20.30;51.50;;;;;;5088083;28;20024;-41
2021/04/18 11:07:23;;;;;;;1.33;1.23;;;20.30;51.40;;;;;;5087328;28;20026;-39
2021/04/18 11:09:49;;;;;;;1.02;0.93;;;20.40;51.30;;;;;;5086656;28;20039;-40
2021/04/18 11:12:16;;;;;;;2.22;1.23;;;20.40;51.30;;;;;;5087283;28;20489;-38
2021/04/18 11:14:42;;;;;;;1.25;1.20;;;20.40;51.50;;;;;;5081186;28;20115;-40
2021/04/18 11:17:07;;;;;;;1.35;1.25;;;20.50;51.10;;;;;;5077075;28;20108;-39
2021/04/18 11:19:33;;;;;;;3.15;1.20;;;20.50;50.90;;;;;;5084162;28;20031;-36
2021/04/18 11:21:58;;;;;;;1.13;1.02;;;20.50;51.20;;;;;;5084821;28;20051;-38
2021/04/18 11:24:25;;;;;;;2.03;1.17;;;20.50;50.90;;;;;;5083771;28;20028;-40
2021/04/18 11:26:51;;;;;;;1.23;1.13;;;20.50;51.00;;;;;;5079088;28;20043;-37
2021/04/18 11:29:17;;;;;;;1.23;0.90;;;20.50;50.80;;;;;;5084725;28;20031;-40
2021/04/18 11:31:44;;;;;;;1.75;1.15;;;20.50;51.10;;;;;;5081777;28;20040;-38
2021/04/18 11:34:10;;;;;;;1.08;0.95;;;20.60;51.00;;;;;;5080694;28;20029;-39
2021/04/18 11:36:36;;;;;;;1.25;1.15;;;20.50;51.10;;;;;;5084928;28;20054;-50
2021/04/18 11:39:01;;;;;;;1.20;1.10;;;20.50;51.10;;;;;;5084724;28;20052;-39
2021/04/18 11:41:27;;;;;;;1.83;1.20;;;20.50;51.00;;;;;;5074257;28;20068;-39
2021/04/18 11:43:53;;;;;;;1.02;1.02;;;20.50;51.10;;;;;;5081102;28;20024;-37
2021/04/18 11:46:18;;;;;;;0.80;0.80;;;20.50;51.00;;;;;;5077370;28;20086;-41
2021/04/18 11:48:55;;;;;;;2.70;1.00;;;20.60;50.80;;;;;;5083451;28;20389;-40
2021/04/18 11:51:21;;;;;;;1.70;0.90;;;20.50;49.30;;;;;;5086581;28;20032;-37
2021/04/18 11:53:49;;;;;;;0.88;0.88;;;20.50;49.10;;;;;;5075112;28;20103;-39
2021/04/18 11:56:15;;;;;;;1.73;1.20;;;20.50;47.50;;;;;;5084323;28;20024;-37
2021/04/18 11:58:40;;;;;;;1.45;1.13;;;20.50;46.70;;;;;;5084744;28;20031;-36
2021/04/18 12:01:06;;;;;;;1.20;1.13;;;20.50;46.60;;;;;;5084130;28;20040;-40
2021/04/18 12:03:32;;;;;;;1.95;1.27;;;20.50;46.50;;;;;;5087508;28;20024;-38
2021/04/18 12:05:58;;;;;;;1.40;0.80;;;20.50;45.40;;;;;;5087141;28;20085;-39
2021/04/18 12:08:23;;;;;;;1.55;1.00;;;20.50;45.30;;;;;;5085093;28;20076;-37
2021/04/18 12:10:49;;;;;;;2.40;1.17;;;20.60;44.70;;;;;;5084927;28;20114;-41
2021/04/18 12:13:15;;;;;;;1.85;1.13;;;20.50;43.30;;;;;;5083467;28;20111;-39
2021/04/18 12:15:40;;;;;;;1.42;1.00;;;20.60;44.00;;;;;;5086530;28;20028;-41
2021/04/18 12:18:06;;;;;;;1.00;0.80;;;20.60;43.40;;;;;;5083990;28;20474;-41
2021/04/18 12:20:32;;;;;;;1.23;1.00;;;20.60;42.50;;;;;;5084339;28;20040;-37
2021/04/18 12:22:57;;;;;;;1.10;0.90;;;20.50;42.20;;;;;;5084184;28;20072;-44
2021/04/18 12:25:23;;;;;;;1.38;1.00;;;20.40;42.90;;;;;;5084081;28;20048;-35
2021/04/18 12:27:48;;;;;;;2.83;1.10;;;20.30;43.30;;;;;;5082696;28;20035;-38
2021/04/18 12:30:14;;;;;;;1.08;1.00;;;20.30;42.80;;;;;;5084060;28;20048;-41
2021/04/18 12:32:42;;;;;;;1.02;0.90;;;20.40;42.50;;;;;;5085250;28;20040;-36
2021/04/18 12:35:08;;;;;;;1.30;1.10;;;20.40;42.30;;;;;;5080422;28;20012;-39
2021/04/18 12:37:33;;;;;;;1.25;0.93;;;20.40;41.70;;;;;;5085326;28;20028;-37
2021/04/18 12:39:59;;;;;;;1.30;1.10;;;20.30;42.10;;;;;;5084774;28;20916;-36
2021/04/18 12:42:24;;;;;;;1.80;1.00;;;20.40;41.10;;;;;;5084709;28;20051;-38
2021/04/18 12:44:51;;;;;;;2.97;1.23;;;20.40;41.40;;;;;;5083743;28;20020;-41
2021/04/18 12:47:18;;;;;;;2.13;1.08;;;20.30;40.60;;;;;;5082222;28;20031;-42
2021/04/18 12:49:43;;;;;;;1.90;1.60;;;20.30;41.50;;;;;;5084665;28;20024;-40
2021/04/18 12:52:09;;;;;;;3.83;1.77;;;20.40;40.70;;;;;;5085609;28;20047;-37
2021/04/18 12:54:35;;;;;;;5.78;2.47;;;20.40;41.40;;;;;;5087465;28;20071;-38
2021/04/18 12:57:00;;;;;;;12.13;3.50;;;20.40;41.10;;;;;;5085362;28;20162;-37
2021/04/18 12:59:26;;;;;;;10.07;3.70;;;20.50;41.00;;;;;;5090813;28;20024;-38
2021/04/18 13:01:51;;;;;;;12.85;4.18;;;20.40;40.50;;;;;;5089688;28;20398;-37
2021/04/18 13:04:17;;;;;;;12.13;4.13;;;20.50;40.80;;;;;;5088874;28;20032;-39
2021/04/18 13:06:44;;;;;;;9.70;3.97;;;20.50;40.60;;;;;;5085570;28;20103;-50
2021/04/18 13:09:10;;;;;;;13.35;3.67;;;20.50;40.40;;;;;;5083195;28;20043;-35
2021/04/18 13:11:35;;;;;;;13.57;3.50;;;20.50;39.90;;;;;;5086461;28;20027;-38
2021/04/18 13:14:01;;;;;;;6.82;3.33;;;20.50;40.40;;;;;;5088964;28;20031;-38
2021/04/18 13:16:27;;;;;;;11.90;3.55;;;20.50;38.90;;;;;;5088753;28;20104;-40
2021/04/18 13:18:52;;;;;;;6.38;2.80;;;20.50;39.00;;;;;;5091483;28;20020;-50
2021/04/18 13:21:18;;;;;;;6.80;2.63;;;20.40;37.40;;;;;;5090760;28;20127;-41
2021/04/18 13:23:43;;;;;;;5.78;2.28;;;20.30;39.20;;;;;;5086178;28;20028;-36
2021/04/18 13:26:09;;;;;;;3.38;1.90;;;20.40;40.20;;;;;;5088150;28;20031;-38
2021/04/18 13:28:35;;;;;;;6.00;1.95;;;20.30;39.80;;;;;;5088842;28;20028;-39
2021/04/18 13:31:01;;;;;;;5.18;2.35;;;20.40;40.20;;;;;;5082739;28;20932;-37
2021/04/18 13:33:26;;;;;;;5.47;1.88;;;20.40;39.60;;;;;;5089800;28;20379;-37
2021/04/18 13:35:52;;;;;;;4.50;2.00;;;20.40;41.40;;;;;;5088192;28;20107;-41
2021/04/18 13:38:17;;;;;;;4.47;1.70;;;20.50;40.90;;;;;;5082532;28;20112;-42
2021/04/18 13:40:43;;;;;;;4.75;2.00;;;20.50;40.50;;;;;;5088819;28;20059;-39
2021/04/18 13:43:11;;;;;;;3.80;1.83;;;20.50;40.90;;;;;;5083996;28;20020;-38
2021/04/18 13:45:37;;;;;;;3.20;1.50;;;20.60;40.90;;;;;;5090173;28;20494;-40
2021/04/18 13:48:02;;;;;;;2.95;1.50;;;20.70;41.20;;;;;;5087702;28;20035;-37
2021/04/18 13:50:28;;;;;;;2.67;1.40;;;20.70;40.60;;;;;;5085586;28;20095;-37
2021/04/18 13:52:53;;;;;;;2.05;1.50;;;20.60;40.50;;;;;;5082939;28;20029;-33
2021/04/18 13:55:19;;;;;;;3.08;1.80;;;20.60;40.10;;;;;;5085474;28;20033;-38
2021/04/18 13:57:45;;;;;;;1.73;1.42;;;20.50;39.80;;;;;;5090340;28;20032;-37
2021/04/18 14:00:13;;;;;;;2.08;1.60;;;20.60;41.20;;;;;;5084058;28;20046;-38
2021/04/18 14:02:38;;;;;;;1.52;1.33;;;20.50;41.40;;;;;;5078524;28;20031;-40
2021/04/18 14:05:06;;;;;;;2.95;1.60;;;20.50;41.30;;;;;;5084239;28;20078;-37
2021/04/18 14:07:31;;;;;;;1.70;1.60;;;20.50;41.40;;;;;;5088008;28;20029;-41
2021/04/18 14:09:57;;;;;;;1.83;1.33;;;20.50;41.30;;;;;;5088075;28;20028;-44
2021/04/18 14:12:23;;;;;;;2.25;1.30;;;20.50;41.10;;;;;;5087029;28;20157;-40
2021/04/18 14:14:49;;;;;;;1.98;1.27;;;20.60;41.50;;;;;;5086408;28;20077;-38
2021/04/18 14:17:16;;;;;;;1.80;1.50;;;20.50;41.20;;;;;;5090011;28;20105;-40
2021/04/18 14:19:42;;;;;;;2.50;1.25;;;20.50;40.90;;;;;;5089640;28;20058;-42
2021/04/18 14:22:08;;;;;;;1.52;1.00;;;20.50;41.10;;;;;;5088977;28;20027;-41
2021/04/18 14:24:34;;;;;;;2.65;1.08;;;20.40;41.00;;;;;;5088883;28;20028;-44
2021/04/18 14:27:00;;;;;;;1.10;0.80;;;20.40;40.10;;;;;;5089193;28;20060;-39
2021/04/18 14:29:25;;;;;;;1.92;1.25;;;20.40;40.20;;;;;;5088671;28;20054;-39
2021/04/18 14:31:51;;;;;;;1.70;1.20;;;20.40;40.90;;;;;;5087019;28;20516;-35
2021/04/18 14:34:17;;;;;;;2.03;1.00;;;20.40;40.80;;;;;;5081658;28;20044;-40
2021/04/18 14:36:43;;;;;;;1.73;1.15;;;20.40;41.60;;;;;;5084851;28;20563;-33
2021/04/18 14:39:08;;;;;;;2.28;1.27;;;20.40;41.60;;;;;;5089503;28;20032;-39
2021/04/18 14:41:34;;;;;;;1.50;0.85;;;20.40;49.30;;;;;;4730013;28;10000330;-41
2021/04/18 14:44:00;;;;;;;1.98;0.80;;;20.30;46.20;;;;;;5081376;28;20036;-39
2021/04/18 14:46:26;;;;;;;3.30;1.08;;;20.40;46.50;;;;;;5085519;28;20024;-35
2021/04/18 14:48:52;;;;;;;1.95;0.70;;;20.30;43.80;;;;;;5085665;28;20068;-36
2021/04/18 14:51:17;;;;;;;2.85;1.25;;;20.30;44.40;;;;;;5084539;28;20542;-39
2021/04/18 14:53:43;;;;;;;1.13;1.02;;;20.20;44.70;;;;;;5083160;28;20092;-41
2021/04/18 14:56:08;;;;;;;1.38;0.98;;;20.10;45.30;;;;;;5082868;28;20036;-34
2021/04/18 14:58:34;;;;;;;2.35;1.27;;;20.10;40.90;;;;;;5081621;28;20056;-35
2021/04/18 15:01:00;;;;;;;1.70;1.48;;;20.00;41.60;;;;;;5085407;28;20051;-37
2021/04/18 15:03:25;;;;;;;3.05;0.80;;;20.10;40.10;;;;;;5086642;28;20024;-36
2021/04/18 15:05:52;;;;;;;0.98;0.85;;;20.10;41.00;;;;;;5083138;28;20059;-38
2021/04/18 15:08:17;;;;;;;1.52;1.10;;;20.20;41.00;;;;;;5083354;28;20025;-39
2021/04/18 15:10:43;;;;;;;1.80;1.05;;;20.20;41.10;;;;;;5077095;28;20042;-33
2021/04/18 15:13:09;;;;;;;1.25;0.80;;;20.20;40.50;;;;;;5084906;28;20047;-38
2021/04/18 15:15:35;;;;;;;2.38;1.27;;;20.20;40.20;;;;;;5079267;28;20513;-44
2021/04/18 15:18:01;;;;;;;1.52;1.00;;;20.30;41.20;;;;;;5081450;28;20042;-38
2021/04/18 15:20:30;;;;;;;2.13;0.93;;;20.20;40.60;;;;;;5083328;28;20513;-39
2021/04/18 15:22:55;;;;;;;1.35;0.90;;;20.30;40.90;;;;;;5082760;28;20424;-36
2021/04/18 15:25:22;;;;;;;0.88;0.88;;;20.20;41.00;;;;;;5084463;28;20028;-39
2021/04/18 15:27:47;;;;;;;2.67;1.23;;;20.20;40.50;;;;;;5064424;28;20102;-39
2021/04/18 15:30:15;;;;;;;1.25;1.15;;;20.20;40.30;;;;;;5084664;28;20466;-41
2021/04/18 15:32:43;;;;;;;1.23;0.82;;;20.10;39.80;;;;;;5084054;28;20028;-37
2021/04/18 15:35:11;;;;;;;1.05;0.88;;;20.10;40.30;;;;;;5080338;28;20046;-37
2021/04/18 15:37:39;;;;;;;5.88;1.25;;;20.10;40.60;;;;;;5076779;28;20047;-43
2021/04/18 15:40:06;;;;;;;1.13;1.10;;;20.10;40.20;;;;;;5081984;28;20038;-36
2021/04/18 15:42:31;;;;;;;1.70;0.80;;;20.10;40.00;;;;;;5085278;28;20032;-40
2021/04/18 15:44:57;;;;;;;0.88;0.80;;;20.10;40.20;;;;;;5079000;28;20032;-37
2021/04/18 15:47:22;;;;;;;0.60;0.60;;;20.10;40.90;;;;;;5077739;28;20020;-40
2021/04/18 15:49:48;;;;;;;1.42;0.70;;;20.20;40.10;;;;;;5080753;28;20043;-40
2021/04/18 15:52:14;;;;;;;1.67;0.98;;;20.30;40.90;;;;;;5085149;28;20036;-38
2021/04/18 15:54:39;;;;;;;1.25;1.15;;;20.30;40.50;;;;;;5087513;28;20024;-39
2021/04/18 15:57:05;;;;;;;0.82;0.75;;;20.20;39.50;;;;;;5083650;28;20028;-37
2021/04/18 15:59:31;;;;;;;1.05;0.90;;;20.30;40.30;;;;;;5083646;28;20035;-38
2021/04/18 16:01:57;;;;;;;1.92;0.98;;;20.20;40.80;;;;;;5083811;28;20040;-42
2021/04/18 16:04:27;;;;;;;2.08;0.80;;;20.20;39.80;;;;;;5086800;28;20174;-39
2021/04/18 16:07:03;;;;;;;0.90;0.80;;;20.30;41.60;;;;;;5087121;28;20028;-37
2021/04/18 16:09:29;;;;;;;1.65;1.05;;;20.30;41.70;;;;;;5086723;28;20104;-34
2021/04/18 16:11:55;;;;;;;1.55;0.93;;;20.20;40.60;;;;;;5081614;28;20028;-35
2021/04/18 16:14:22;;;;;;;3.58;0.70;;;20.20;40.10;;;;;;5086331;28;20032;-38
2021/04/18 16:16:51;;;;;;;1.17;0.70;;;20.20;40.10;;;;;;5082714;28;20031;-37
2021/04/18 16:19:19;;;;;;;1.27;0.80;;;20.10;40.20;;;;;;5084314;28;20120;-38
2021/04/18 16:21:45;;;;;;;2.20;0.98;;;20.20;40.60;;;;;;5087187;28;20528;-40
2021/04/18 16:24:11;;;;;;;2.65;1.17;;;20.20;40.20;;;;;;5085392;28;20122;-36
2021/04/18 16:26:36;;;;;;;1.10;0.70;;;20.30;41.20;;;;;;5083533;28;20099;-35
2021/04/18 16:29:02;;;;;;;1.83;0.70;;;20.20;40.40;;;;;;5084803;28;20105;-39
2021/04/18 16:31:27;;;;;;;1.33;0.77;;;20.30;40.30;;;;;;5085181;28;20028;-36
2021/04/18 16:33:53;;;;;;;1.67;1.00;;;20.30;40.60;;;;;;5085965;28;20477;-38
2021/04/18 16:36:19;;;;;;;0.60;0.60;;;20.40;40.60;;;;;;5090458;28;20081;-37
2021/04/18 16:38:44;;;;;;;0.80;0.80;;;20.50;41.00;;;;;;5090173;28;20035;-38
2021/04/18 16:41:10;;;;;;;1.30;0.85;;;20.50;41.20;;;;;;5087678;28;20048;-40
2021/04/18 16:43:36;;;;;;;1.17;0.70;;;20.60;41.20;;;;;;5087552;28;20024;-37
2021/04/18 16:46:02;;;;;;;2.30;0.88;;;20.50;41.70;;;;;;5087736;28;20036;-39
2021/04/18 16:48:29;;;;;;;1.23;0.75;;;20.50;41.90;;;;;;5074929;28;20019;-37
2021/04/18 16:50:55;;;;;;;1.25;0.85;;;20.40;42.30;;;;;;5088457;28;20020;-40
2021/04/18 16:53:20;;;;;;;0.80;0.80;;;20.40;41.50;;;;;;5087416;28;20024;-41
2021/04/18 16:55:46;;;;;;;0.55;0.55;;;20.30;41.70;;;;;;5088735;28;20032;-37
2021/04/18 16:58:12;;;;;;;0.73;0.63;;;20.20;42.10;;;;;;5090740;28;21735;-41
2021/04/18 17:00:37;;;;;;;0.77;0.65;;;20.10;42.30;;;;;;5093346;28;20036;-36
2021/04/18 17:03:03;;;;;;;2.22;0.85;;;20.00;42.50;;;;;;5087526;28;20031;-35
2021/04/18 17:05:29;;;;;;;0.80;0.80;;;20.00;42.90;;;;;;5085893;28;20036;-39
2021/04/18 17:07:54;;;;;;;0.88;0.77;;;20.00;42.90;;;;;;5084389;28;20028;-38
2021/04/18 17:10:20;;;;;;;0.80;0.60;;;20.00;43.10;;;;;;5088398;28;20024;-39
2021/04/18 17:12:45;;;;;;;0.60;0.60;;;19.90;43.40;;;;;;5087514;28;20039;-37
2021/04/18 17:15:12;;;;;;;0.73;0.73;;;20.00;43.50;;;;;;5090178;28;20028;-37
2021/04/18 17:17:39;;;;;;;1.05;0.90;;;20.10;43.70;;;;;;5087777;28;20024;-36
2021/04/18 17:20:05;;;;;;;1.05;0.80;;;20.10;44.00;;;;;;5086618;28;20032;-37
2021/04/18 17:22:31;;;;;;;1.65;0.90;;;20.20;44.50;;;;;;5090348;28;20034;-39
2021/04/18 17:24:57;;;;;;;2.50;0.80;;;20.10;46.70;;;;;;5090474;28;20389;-34
2021/04/18 17:27:22;;;;;;;2.75;0.93;;;20.10;47.50;;;;;;5091427;28;20089;-37
2021/04/18 17:29:48;;;;;;;1.60;0.80;;;20.20;47.50;;;;;;5088188;28;20032;-42
2021/04/18 17:32:14;;;;;;;1.35;0.70;;;20.10;46.90;;;;;;5089306;28;20024;-36
2021/04/18 17:34:39;;;;;;;0.88;0.80;;;20.20;46.70;;;;;;5086758;28;20493;-39
2021/04/18 17:37:05;;;;;;;1.05;0.75;;;20.30;46.30;;;;;;5089155;28;20036;-36
2021/04/18 17:39:31;;;;;;;1.42;0.70;;;20.30;46.20;;;;;;5090226;28;20055;-34
2021/04/18 17:41:56;;;;;;;1.10;1.00;;;20.30;46.10;;;;;;5085889;28;20045;-35
2021/04/18 17:44:22;;;;;;;1.40;1.15;;;20.40;46.10;;;;;;5088081;28;20335;-32
2021/04/18 17:46:47;;;;;;;1.27;0.73;;;20.20;46.00;;;;;;4729895;28;10000155;-41
2021/04/18 17:49:13;;;;;;;1.00;0.90;;;20.10;46.70;;;;;;5082360;28;20505;-38
2021/04/18 17:51:39;;;;;;;1.23;1.13;;;20.00;47.10;;;;;;5089204;28;20046;-34
2021/04/18 17:54:05;;;;;;;1.77;1.40;;;20.10;46.80;;;;;;5084763;28;20032;-33
2021/04/18 17:56:30;;;;;;;1.23;1.13;;;20.00;47.00;;;;;;5082656;28;20027;-34
2021/04/18 17:58:56;;;;;;;1.20;1.10;;;20.10;47.30;;;;;;5086350;28;20039;-32
2021/04/18 18:01:22;;;;;;;2.75;1.30;;;20.10;47.40;;;;;;5084996;28;20032;-36
2021/04/18 18:03:47;;;;;;;1.10;0.98;;;20.00;47.60;;;;;;5086305;28;20058;-34
2021/04/18 18:06:13;;;;;;;2.05;1.48;;;20.00;48.00;;;;;;5079197;28;20409;-33
2021/04/18 18:08:38;;;;;;;7.75;1.55;;;20.00;47.10;;;;;;5083639;28;20040;-34
2021/04/18 18:11:05;;;;;;;2.35;1.35;;;20.00;47.10;;;;;;5082377;28;20024;-36
2021/04/18 18:13:31;;;;;;;7.68;1.95;;;20.00;47.60;;;;;;5085253;28;20651;-39
2021/04/18 18:15:57;;;;;;;1.63;1.50;;;20.00;47.40;;;;;;5085951;28;20047;-34
2021/04/18 18:18:23;;;;;;;2.42;1.40;;;20.20;47.30;;;;;;5085893;28;20486;-50
2021/04/18 18:20:48;;;;;;;3.67;2.10;;;20.10;47.90;;;;;;5081444;28;20040;-39
2021/04/18 18:23:15;;;;;;;5.18;1.45;;;20.10;47.50;;;;;;5083430;28;20150;-39
2021/04/18 18:25:42;;;;;;;2.53;1.60;;;20.10;48.30;;;;;;5084124;28;20043;-39
2021/04/18 18:28:08;;;;;;;7.55;1.83;;;20.20;47.20;;;;;;5082260;28;20020;-37
2021/04/18 18:30:33;;;;;;;3.70;1.38;;;20.30;46.80;;;;;;5085066;28;20863;-40
2021/04/18 18:32:59;;;;;;;2.95;1.58;;;20.30;46.90;;;;;;5084493;28;20106;-36
2021/04/18 18:35:25;;;;;;;1.58;1.48;;;20.40;47.10;;;;;;5084610;28;20521;-44
2021/04/18 18:37:50;;;;;;;2.70;1.67;;;20.40;46.90;;;;;;5066995;28;20024;-37
2021/04/18 18:40:16;;;;;;;3.35;1.52;;;20.40;46.80;;;;;;5083444;28;20055;-39
2021/04/18 18:42:42;;;;;;;5.00;1.50;;;20.40;47.00;;;;;;5082341;28;20055;-39
2021/04/18 18:45:11;;;;;;;2.45;1.48;;;20.50;47.10;;;;;;5080328;28;20028;-41
2021/04/18 18:47:37;;;;;;;1.30;1.20;;;20.40;47.40;;;;;;5082241;28;20099;-35
2021/04/18 18:50:04;;;;;;;5.45;1.13;;;20.40;47.10;;;;;;5083791;28;20470;-36
2021/04/18 18:52:45;;;;;;;1.23;1.13;;;20.50;47.10;;;;;;5079530;28;20044;-37
2021/04/18 18:55:12;;;;;;;1.23;1.10;;;20.50;47.00;;;;;;5081740;28;20486;-34
2021/04/18 18:57:37;;;;;;;2.05;1.10;;;20.60;47.00;;;;;;5085745;28;20855;-38
2021/04/18 19:00:05;;;;;;;1.40;1.30;;;20.50;47.10;;;;;;5081701;28;20055;-36
2021/04/18 19:02:31;;;;;;;1.52;1.20;;;20.60;47.00;;;;;;5081609;28;20028;-41
2021/04/18 19:04:56;;;;;;;1.38;1.27;;;20.60;47.20;;;;;;5081689;28;20043;-43
2021/04/18 19:07:22;;;;;;;2.80;1.10;;;20.50;47.20;;;;;;5083780;28;20089;-37
2021/04/18 19:09:47;;;;;;;1.30;1.20;;;20.50;47.30;;;;;;5083341;28;20028;-38
2021/04/18 19:12:13;;;;;;;1.73;1.63;;;20.40;47.20;;;;;;5106213;27;20051;-40
2021/04/18 19:14:41;;;;;;;1.30;1.20;;;20.50;47.30;;;;;;5084014;28;20028;-38
2021/04/18 19:17:07;;;;;;;2.42;1.13;;;20.50;47.50;;;;;;5080506;28;20029;-40
2021/04/18 19:19:32;;;;;;;1.27;1.23;;;20.50;47.20;;;;;;5084193;28;20047;-41
2021/04/18 19:21:58;;;;;;;1.55;1.40;;;20.50;47.50;;;;;;5081175;28;20138;-38
2021/04/18 19:24:23;;;;;;;1.23;1.13;;;20.30;47.90;;;;;;5085959;28;20641;-38
2021/04/18 19:26:49;;;;;;;1.90;1.40;;;20.30;48.00;;;;;;5082975;28;20058;-38
2021/04/18 19:29:15;;;;;;;1.33;1.23;;;20.30;48.30;;;;;;5083028;28;20104;-40
2021/04/18 19:31:40;;;;;;;1.10;1.10;;;20.30;48.20;;;;;;5083902;28;20758;-36
2021/04/18 19:34:06;;;;;;;1.17;1.10;;;20.30;48.20;;;;;;5083245;28;20039;-35
2021/04/18 19:36:32;;;;;;;1.50;1.40;;;20.30;48.30;;;;;;5084885;28;20137;-38
2021/04/18 19:38:57;;;;;;;3.97;1.60;;;20.30;48.30;;;;;;5083971;28;20028;-39
2021/04/18 19:41:23;;;;;;;2.55;1.05;;;20.40;48.90;;;;;;5081673;28;20056;-36
2021/04/18 19:43:49;;;;;;;1.42;1.20;;;20.30;48.20;;;;;;5075726;28;20509;-36
2021/04/18 19:46:14;;;;;;;1.35;1.10;;;20.40;48.20;;;;;;5082206;28;20486;-38
2021/04/18 19:48:40;;;;;;;1.48;1.15;;;20.40;48.30;;;;;;5085454;28;20059;-37
2021/04/18 19:51:05;;;;;;;2.53;1.40;;;20.30;48.50;;;;;;5082723;28;20444;-38
2021/04/18 19:53:31;;;;;;;1.88;1.20;;;20.30;48.60;;;;;;5080749;28;20032;-40
2021/04/18 19:55:57;;;;;;;1.17;1.10;;;20.30;48.70;;;;;;5083441;28;20043;-35
2021/04/18 19:58:23;;;;;;;1.25;1.25;;;20.40;48.20;;;;;;5078403;28;20490;-40
2021/04/18 20:00:49;;;;;;;1.27;1.17;;;20.40;48.30;;;;;;5084941;28;20031;-41
2021/04/18 20:03:15;;;;;;;1.42;1.25;;;20.40;48.40;;;;;;5085715;28;20031;-41
2021/04/18 20:05:41;;;;;;;1.23;1.13;;;20.40;48.40;;;;;;5077395;28;20036;-36
2021/04/18 20:08:07;;;;;;;1.30;1.20;;;20.40;48.50;;;;;;5083945;28;20112;-38
2021/04/18 20:10:32;;;;;;;1.73;1.40;;;20.40;48.40;;;;;;5083676;28;20102;-41
2021/04/18 20:12:58;;;;;;;1.17;1.08;;;20.40;48.40;;;;;;5081277;28;20028;-42
2021/04/18 20:15:23;;;;;;;1.25;1.17;;;20.40;48.40;;;;;;5084014;28;20535;-40
2021/04/18 20:17:49;;;;;;;0.95;0.95;;;20.40;48.40;;;;;;5079231;28;20441;-41
2021/04/18 20:20:15;;;;;;;1.30;1.20;;;20.40;48.30;;;;;;5084335;28;20047;-38
2021/04/18 20:22:41;;;;;;;1.40;1.25;;;20.40;48.40;;;;;;5082270;28;20042;-39
2021/04/18 20:25:07;;;;;;;0.90;0.90;;;20.40;48.40;;;;;;5084266;28;20027;-36
2021/04/18 20:27:36;;;;;;;1.35;1.15;;;20.40;48.60;;;;;;5081573;28;20024;-42
2021/04/18 20:30:04;;;;;;;1.20;1.10;;;20.40;48.60;;;;;;5081323;28;20051;-35
2021/04/18 20:32:29;;;;;;;2.08;0.90;;;20.40;49.30;;;;;;5080529;28;20161;-38
2021/04/18 20:34:55;;;;;;;1.30;1.20;;;20.40;48.50;;;;;;5080973;28;20068;-34
2021/04/18 20:37:21;;;;;;;1.50;1.38;;;20.40;48.60;;;;;;5082569;28;20036;-37
2021/04/18 20:39:47;;;;;;;1.52;1.10;;;20.40;48.60;;;;;;5082875;28;20044;-39
2021/04/18 20:42:13;;;;;;;1.20;1.20;;;20.30;48.80;;;;;;5083291;28;20127;-41
2021/04/18 20:44:38;;;;;;;0.85;0.85;;;20.40;48.90;;;;;;5082998;28;20039;-38
2021/04/18 20:47:04;;;;;;;1.40;1.00;;;20.40;49.20;;;;;;5081657;28;20036;-36
2021/04/18 20:49:30;;;;;;;1.10;1.10;;;20.50;48.50;;;;;;5082497;28;20687;-42
2021/04/18 20:51:55;;;;;;;0.90;0.90;;;20.50;48.30;;;;;;5081710;28;20036;-40
2021/04/18 20:54:21;;;;;;;1.67;0.93;;;20.50;48.50;;;;;;5081382;28;20455;-38
2021/04/18 20:56:46;;;;;;;0.95;0.95;;;20.50;48.40;;;;;;5079052;28;20032;-39
2021/04/18 20:59:12;;;;;;;4.00;1.20;;;20.50;48.40;;;;;;5077508;28;20024;-39
2021/04/18 21:01:38;;;;;;;1.30;1.20;;;20.60;48.20;;;;;;5079433;28;20035;-38
2021/04/18 21:04:04;;;;;;;2.13;1.15;;;20.60;48.20;;;;;;5082640;28;20406;-35
2021/04/18 21:06:29;;;;;;;1.20;1.10;;;20.60;48.20;;;;;;5078962;28;20035;-38
2021/04/18 21:08:55;;;;;;;1.05;1.05;;;20.60;48.90;;;;;;5078719;28;20469;-41
2021/04/18 21:11:20;;;;;;;1.83;1.13;;;20.50;48.40;;;;;;5076494;28;20039;-40
2021/04/18 21:13:46;;;;;;;1.40;1.30;;;20.50;48.40;;;;;;5079247;28;20391;-43
2021/04/18 21:16:12;;;;;;;1.30;1.20;;;20.50;48.50;;;;;;5079746;28;20029;-37
2021/04/18 21:18:37;;;;;;;1.92;1.20;;;20.40;48.60;;;;;;5081899;28;20111;-39
2021/04/18 21:21:03;;;;;;;1.75;1.50;;;20.30;49.00;;;;;;5076882;28;20085;-40
2021/04/18 21:23:29;;;;;;;1.65;1.55;;;20.20;49.10;;;;;;5078192;28;20052;-36